Vitsentzos Kornaros — SXNX — position and weather

sailwx.info

Track history (hours):
 
Tides and Currents Weather Stations Pressure Air Temp Water Temp Dewpoint Dewpoint Depression Visibility Wind Speed Wind Dir Waves Ship Positions

Vitsentzos Kornaros

Last reported at 2016-Sep-26 15:33 UTC. Time now 2016-Sep-29 05:03 UTC.
Position N 37°40' E 023°41'.

Length 128 m; draft 4.5 m.

Type: Passenger vessel. MMSI: 239311000.

Date/timePositionNaut miles runAvg speedWind from/ knotsBaromVisibWave heightAir tempDewpointWater temp
2016-Sep-26 15:33N 37°40' E 023°41'17 8.3
2016-Sep-26 13:33N 37°57' E 023°38'0 0.0
2016-Sep-26 11:33N 37°57' E 023°38'0 0.0
2016-Sep-26 08:33N 37°57' E 023°38'6 1.1
2016-Sep-26 02:33N 37°51' E 023°40'1413.8
2016-Sep-26 01:33N 37°37' E 023°44'1514.6
2016-Sep-26 00:33N 37°23' E 023°38'26 0.7
2016-Sep-24 09:29N 36°59' E 023°26'59 9.9
2016-Sep-24 03:34N 37°57' E 023°38'0 0.0
2016-Sep-24 02:34N 37°57' E 023°38'0 0.0
2016-Sep-24 01:34N 37°57' E 023°38'0 0.0
2016-Sep-24 00:33N 37°57' E 023°38'0 0.0
2016-Sep-23 19:34N 37°57' E 023°38'0 0.0
2016-Sep-23 17:33N 37°57' E 023°38'0 0.0
2016-Sep-23 16:33N 37°57' E 023°38'0 0.0
2016-Sep-23 15:34N 37°57' E 023°38'0 0.0
2016-Sep-23 13:34N 37°57' E 023°38'0 0.0
2016-Sep-23 09:33N 37°57' E 023°38'0 0.0
2016-Sep-23 06:33N 37°57' E 023°38'0 0.0
2016-Sep-23 04:33N 37°57' E 023°38'3 3.2
2016-Sep-23 03:33N 37°54' E 023°38'1514.6
2016-Sep-23 02:33N 37°40' E 023°45'1414.3
2016-Sep-23 01:33N 37°27' E 023°39'1514.6
2016-Sep-23 00:33N 37°13' E 023°33'1814.6
2016-Sep-22 23:20N 36°56' E 023°24'  
2016-Sep-19 19:32N 36°45' E 023°21'1414.1
2016-Sep-19 18:33N 36°58' E 023°26'2713.8
2016-Sep-19 16:33N 37°24' E 023°38'2914.3
2016-Sep-19 14:34N 37°52' E 023°37'5 4.6
2016-Sep-19 13:33N 37°57' E 023°38'0 0.0
2016-Sep-19 12:33N 37°57' E 023°38'0 0.0
2016-Sep-19 11:33N 37°57' E 023°38'0 0.0
2016-Sep-19 09:33N 37°57' E 023°38'0 0.0
2016-Sep-19 07:33N 37°57' E 023°38'0 0.0
2016-Sep-19 06:33N 37°57' E 023°38'0 0.0
2016-Sep-19 03:33N 37°57' E 023°38'9 9.0
2016-Sep-19 02:34N 37°48' E 023°41'2613.0
2016-Sep-19 00:33N 37°22' E 023°37'9510.5
2016-Sep-18 15:33N 35°48' E 023°27'19 1.0
2016-Sep-17 20:08N 35°31' E 023°38'0 0.0
2016-Sep-17 18:43N 35°31' E 023°38'0 0.0
2016-Sep-17 13:33N 35°31' E 023°38'0 0.0
2016-Sep-17 12:33N 35°31' E 023°38'0 0.0
2016-Sep-17 10:34N 35°31' E 023°38'0 0.0
2016-Sep-17 09:33N 35°31' E 023°38'0 0.0
2016-Sep-17 08:33N 35°31' E 023°38'0 0.0
2016-Sep-17 05:33N 35°31' E 023°38'0 0.0
2016-Sep-17 04:21N 35°31' E 023°38'31 8.1
2016-Sep-17 00:33N 35°56' E 023°17'7811.2
2016-Sep-16 17:33N 37°13' E 023°33'  
Track history (hours):
 
Tides and Currents Weather Stations Pressure Air Temp Water Temp Dewpoint Dewpoint Depression Visibility Wind Speed Wind Dir Waves Ship Positions

Vitsentzos Kornaros

Last reported at 2016-Sep-26 15:33 UTC. Time now 2016-Sep-29 05:03 UTC.
Position N 37°40' E 023°41'.

Length 128 m; draft 4.5 m.

Type: Passenger vessel. MMSI: 239311000.

Date/timePositionNaut miles runAvg speedWind from/ knotsBaromVisibWave heightAir tempDewpointWater temp
2016-Sep-26 15:33N 37°40' E 023°41'17 8.3
2016-Sep-26 13:33N 37°57' E 023°38'0 0.0
2016-Sep-26 11:33N 37°57' E 023°38'0 0.0
2016-Sep-26 08:33N 37°57' E 023°38'6 1.1
2016-Sep-26 02:33N 37°51' E 023°40'1413.8
2016-Sep-26 01:33N 37°37' E 023°44'1514.6
2016-Sep-26 00:33N 37°23' E 023°38'26 0.7
2016-Sep-24 09:29N 36°59' E 023°26'59 9.9
2016-Sep-24 03:34N 37°57' E 023°38'0 0.0
2016-Sep-24 02:34N 37°57' E 023°38'0 0.0
2016-Sep-24 01:34N 37°57' E 023°38'0 0.0
2016-Sep-24 00:33N 37°57' E 023°38'0 0.0
2016-Sep-23 19:34N 37°57' E 023°38'0 0.0
2016-Sep-23 17:33N 37°57' E 023°38'0 0.0
2016-Sep-23 16:33N 37°57' E 023°38'0 0.0
2016-Sep-23 15:34N 37°57' E 023°38'0 0.0
2016-Sep-23 13:34N 37°57' E 023°38'0 0.0
2016-Sep-23 09:33N 37°57' E 023°38'0 0.0
2016-Sep-23 06:33N 37°57' E 023°38'0 0.0
2016-Sep-23 04:33N 37°57' E 023°38'3 3.2
2016-Sep-23 03:33N 37°54' E 023°38'1514.6
2016-Sep-23 02:33N 37°40' E 023°45'1414.3
2016-Sep-23 01:33N 37°27' E 023°39'1514.6
2016-Sep-23 00:33N 37°13' E 023°33'1814.6
2016-Sep-22 23:20N 36°56' E 023°24'  
2016-Sep-19 19:32N 36°45' E 023°21'1414.1
2016-Sep-19 18:33N 36°58' E 023°26'2713.8
2016-Sep-19 16:33N 37°24' E 023°38'2914.3
2016-Sep-19 14:34N 37°52' E 023°37'5 4.6
2016-Sep-19 13:33N 37°57' E 023°38'0 0.0
2016-Sep-19 12:33N 37°57' E 023°38'0 0.0
2016-Sep-19 11:33N 37°57' E 023°38'0 0.0
2016-Sep-19 09:33N 37°57' E 023°38'0 0.0
2016-Sep-19 07:33N 37°57' E 023°38'0 0.0
2016-Sep-19 06:33N 37°57' E 023°38'0 0.0
2016-Sep-19 03:33N 37°57' E 023°38'9 9.0
2016-Sep-19 02:34N 37°48' E 023°41'2613.0
2016-Sep-19 00:33N 37°22' E 023°37'9510.5
2016-Sep-18 15:33N 35°48' E 023°27'19 1.0
2016-Sep-17 20:08N 35°31' E 023°38'0 0.0
2016-Sep-17 18:43N 35°31' E 023°38'0 0.0
2016-Sep-17 13:33N 35°31' E 023°38'0 0.0
2016-Sep-17 12:33N 35°31' E 023°38'0 0.0
2016-Sep-17 10:34N 35°31' E 023°38'0 0.0
2016-Sep-17 09:33N 35°31' E 023°38'0 0.0
2016-Sep-17 08:33N 35°31' E 023°38'0 0.0
2016-Sep-17 05:33N 35°31' E 023°38'0 0.0
2016-Sep-17 04:21N 35°31' E 023°38'31 8.1
2016-Sep-17 00:33N 35°56' E 023°17'7811.2
2016-Sep-16 17:33N 37°13' E 023°33'  

Dump ship's entire track history